sensor_id;sensor_type;location;lat;lon;timestamp;pressure;altitude;pressure_sealevel;temperature;humidity
15229;BME280;7717;47.792;12.076;2023-12-29T00:01:59;96422.88;;;7.26;60.83
15229;BME280;7717;47.792;12.076;2023-12-29T00:04:28;96436.34;;;7.41;57.92
15229;BME280;7717;47.792;12.076;2023-12-29T00:06:53;96427.97;;;7.28;61.55
15229;BME280;7717;47.792;12.076;2023-12-29T00:09:19;96422.94;;;7.16;61.67
15229;BME280;7717;47.792;12.076;2023-12-29T00:11:49;96420.06;;;7.10;58.68
15229;BME280;7717;47.792;12.076;2023-12-29T00:14:19;96413.91;;;7.19;60.86
15229;BME280;7717;47.792;12.076;2023-12-29T00:16:45;96430.13;;;7.05;62.40
15229;BME280;7717;47.792;12.076;2023-12-29T00:19:11;96411.34;;;7.09;61.43
15229;BME280;7717;47.792;12.076;2023-12-29T00:21:37;96418.41;;;6.99;62.31
15229;BME280;7717;47.792;12.076;2023-12-29T00:24:03;96415.72;;;6.72;63.35
15229;BME280;7717;47.792;12.076;2023-12-29T00:26:28;96413.72;;;6.47;64.24
15229;BME280;7717;47.792;12.076;2023-12-29T00:28:54;96406.25;;;6.52;61.60
15229;BME280;7717;47.792;12.076;2023-12-29T00:31:20;96422.41;;;6.57;64.02
15229;BME280;7717;47.792;12.076;2023-12-29T00:33:45;96412.03;;;6.65;62.56
15229;BME280;7717;47.792;12.076;2023-12-29T00:36:18;96404.84;;;6.67;61.54
15229;BME280;7717;47.792;12.076;2023-12-29T00:38:47;96404.88;;;6.57;61.06
15229;BME280;7717;47.792;12.076;2023-12-29T00:41:12;96400.50;;;6.29;63.95
15229;BME280;7717;47.792;12.076;2023-12-29T00:43:38;96366.56;;;5.79;64.57
15229;BME280;7717;47.792;12.076;2023-12-29T00:46:04;96416.56;;;5.67;65.99
15229;BME280;7717;47.792;12.076;2023-12-29T00:48:32;96402.09;;;5.72;64.97
15229;BME280;7717;47.792;12.076;2023-12-29T00:50:58;96413.28;;;5.65;65.81
15229;BME280;7717;47.792;12.076;2023-12-29T00:53:23;96393.53;;;5.41;66.36
15229;BME280;7717;47.792;12.076;2023-12-29T00:55:49;96392.00;;;5.39;66.44
15229;BME280;7717;47.792;12.076;2023-12-29T00:58:14;96399.38;;;5.14;67.64
15229;BME280;7717;47.792;12.076;2023-12-29T01:00:39;96400.44;;;5.12;67.82
15229;BME280;7717;47.792;12.076;2023-12-29T01:03:05;96387.28;;;4.83;67.91
15229;BME280;7717;47.792;12.076;2023-12-29T01:05:30;96403.78;;;4.84;68.80
15229;BME280;7717;47.792;12.076;2023-12-29T01:07:56;96398.75;;;4.92;68.40
15229;BME280;7717;47.792;12.076;2023-12-29T01:10:21;96405.34;;;4.96;68.40
15229;BME280;7717;47.792;12.076;2023-12-29T01:12:49;96408.97;;;4.53;69.64
15229;BME280;7717;47.792;12.076;2023-12-29T01:15:15;96416.69;;;4.34;70.36
15229;BME280;7717;47.792;12.076;2023-12-29T01:17:40;96409.06;;;4.21;71.56
15229;BME280;7717;47.792;12.076;2023-12-29T01:20:06;96407.38;;;3.79;72.00
15229;BME280;7717;47.792;12.076;2023-12-29T01:22:36;96424.16;;;3.86;73.39
15229;BME280;7717;47.792;12.076;2023-12-29T01:25:02;96412.75;;;3.87;72.97
15229;BME280;7717;47.792;12.076;2023-12-29T01:27:29;96422.59;;;3.94;72.34
15229;BME280;7717;47.792;12.076;2023-12-29T01:29:55;96413.03;;;3.84;72.90
15229;BME280;7717;47.792;12.076;2023-12-29T01:32:21;96417.63;;;3.91;72.10
15229;BME280;7717;47.792;12.076;2023-12-29T01:34:46;96413.19;;;3.71;72.96
15229;BME280;7717;47.792;12.076;2023-12-29T01:37:12;96413.06;;;4.05;71.97
15229;BME280;7717;47.792;12.076;2023-12-29T01:39:37;96394.34;;;4.41;70.50
15229;BME280;7717;47.792;12.076;2023-12-29T01:42:03;96374.34;;;4.51;69.45
15229;BME280;7717;47.792;12.076;2023-12-29T01:44:28;96311.88;;;4.88;66.67
15229;BME280;7717;47.792;12.076;2023-12-29T01:46:55;96379.22;;;5.05;65.73
15229;BME280;7717;47.792;12.076;2023-12-29T01:49:22;96375.28;;;5.11;66.41
15229;BME280;7717;47.792;12.076;2023-12-29T01:51:58;96375.41;;;4.49;68.19
15229;BME280;7717;47.792;12.076;2023-12-29T01:54:28;96349.25;;;3.97;70.03
15229;BME280;7717;47.792;12.076;2023-12-29T01:56:59;96364.72;;;4.31;69.45
15229;BME280;7717;47.792;12.076;2023-12-29T01:59:26;96326.66;;;5.08;65.74
15229;BME280;7717;47.792;12.076;2023-12-29T02:01:56;96351.50;;;5.24;65.86
15229;BME280;7717;47.792;12.076;2023-12-29T02:04:23;96343.97;;;5.00;66.46
15229;BME280;7717;47.792;12.076;2023-12-29T02:06:49;96348.25;;;5.01;66.29
15229;BME280;7717;47.792;12.076;2023-12-29T02:09:16;96339.03;;;4.97;66.84
15229;BME280;7717;47.792;12.076;2023-12-29T02:11:42;96339.47;;;5.11;66.58
15229;BME280;7717;47.792;12.076;2023-12-29T02:14:07;96338.72;;;5.49;65.27
15229;BME280;7717;47.792;12.076;2023-12-29T02:19:37;96338.22;;;5.06;65.94
15229;BME280;7717;47.792;12.076;2023-12-29T02:22:06;96321.78;;;5.44;65.54
15229;BME280;7717;47.792;12.076;2023-12-29T02:24:36;96327.81;;;5.25;66.47
15229;BME280;7717;47.792;12.076;2023-12-29T02:27:11;96303.38;;;4.96;66.76
15229;BME280;7717;47.792;12.076;2023-12-29T02:29:38;96275.16;;;4.99;66.19
15229;BME280;7717;47.792;12.076;2023-12-29T02:32:10;96313.94;;;5.44;66.44
15229;BME280;7717;47.792;12.076;2023-12-29T02:34:38;96276.72;;;5.59;65.05
15229;BME280;7717;47.792;12.076;2023-12-29T02:37:06;96307.31;;;5.78;64.64
15229;BME280;7717;47.792;12.076;2023-12-29T02:39:35;96286.34;;;5.59;65.57
15229;BME280;7717;47.792;12.076;2023-12-29T02:42:01;96298.78;;;5.76;64.73
15229;BME280;7717;47.792;12.076;2023-12-29T02:44:26;96302.34;;;5.94;65.56
15229;BME280;7717;47.792;12.076;2023-12-29T02:46:52;96267.91;;;5.89;64.00
15229;BME280;7717;47.792;12.076;2023-12-29T02:49:17;96274.19;;;6.06;64.22
15229;BME280;7717;47.792;12.076;2023-12-29T02:51:43;96285.63;;;6.15;64.94
15229;BME280;7717;47.792;12.076;2023-12-29T02:54:13;96290.19;;;6.13;64.03
15229;BME280;7717;47.792;12.076;2023-12-29T02:56:38;96255.66;;;5.90;65.29
15229;BME280;7717;47.792;12.076;2023-12-29T02:59:04;96242.69;;;5.98;64.13
15229;BME280;7717;47.792;12.076;2023-12-29T03:01:29;96287.81;;;6.19;64.05
15229;BME280;7717;47.792;12.076;2023-12-29T03:03:55;96260.69;;;6.11;63.77
15229;BME280;7717;47.792;12.076;2023-12-29T03:06:20;96250.25;;;6.01;63.01
15229;BME280;7717;47.792;12.076;2023-12-29T03:08:45;96274.41;;;6.32;63.49
15229;BME280;7717;47.792;12.076;2023-12-29T03:11:11;96275.41;;;6.31;63.60
15229;BME280;7717;47.792;12.076;2023-12-29T03:13:36;96273.28;;;6.44;64.21
15229;BME280;7717;47.792;12.076;2023-12-29T03:16:02;96216.63;;;5.96;64.03
15229;BME280;7717;47.792;12.076;2023-12-29T03:18:27;96208.72;;;6.06;64.07
15229;BME280;7717;47.792;12.076;2023-12-29T03:20:53;96232.59;;;6.40;62.44
15229;BME280;7717;47.792;12.076;2023-12-29T03:23:18;96285.16;;;6.75;62.26
15229;BME280;7717;47.792;12.076;2023-12-29T03:25:43;96237.56;;;6.43;62.90
15229;BME280;7717;47.792;12.076;2023-12-29T03:28:09;96269.44;;;6.66;62.46
15229;BME280;7717;47.792;12.076;2023-12-29T03:30:35;96273.22;;;6.91;60.37
15229;BME280;7717;47.792;12.076;2023-12-29T03:33:00;96263.31;;;6.85;60.89
15229;BME280;7717;47.792;12.076;2023-12-29T03:35:25;96243.22;;;6.66;60.47
15229;BME280;7717;47.792;12.076;2023-12-29T03:37:51;96240.66;;;6.56;61.09
15229;BME280;7717;47.792;12.076;2023-12-29T03:40:16;96227.72;;;6.45;61.97
15229;BME280;7717;47.792;12.076;2023-12-29T03:42:42;96230.78;;;6.41;61.73
15229;BME280;7717;47.792;12.076;2023-12-29T03:45:07;96252.22;;;6.63;61.66
15229;BME280;7717;47.792;12.076;2023-12-29T03:47:33;96230.78;;;6.50;60.40
15229;BME280;7717;47.792;12.076;2023-12-29T03:49:58;96241.00;;;6.44;61.03
15229;BME280;7717;47.792;12.076;2023-12-29T03:52:24;96232.13;;;6.17;61.85
15229;BME280;7717;47.792;12.076;2023-12-29T03:54:50;96248.25;;;6.22;61.95
15229;BME280;7717;47.792;12.076;2023-12-29T03:57:15;96261.16;;;6.33;62.00
15229;BME280;7717;47.792;12.076;2023-12-29T03:59:40;96274.78;;;6.47;62.17
15229;BME280;7717;47.792;12.076;2023-12-29T04:02:06;96268.63;;;6.28;63.58
15229;BME280;7717;47.792;12.076;2023-12-29T04:04:32;96261.59;;;6.29;62.26
15229;BME280;7717;47.792;12.076;2023-12-29T04:06:57;96277.97;;;6.50;61.95
15229;BME280;7717;47.792;12.076;2023-12-29T04:09:22;96285.97;;;6.49;61.77
15229;BME280;7717;47.792;12.076;2023-12-29T04:11:48;96271.38;;;6.36;62.36
15229;BME280;7717;47.792;12.076;2023-12-29T04:14:13;96273.63;;;6.31;64.07
15229;BME280;7717;47.792;12.076;2023-12-29T04:16:39;96279.25;;;6.27;63.35
15229;BME280;7717;47.792;12.076;2023-12-29T04:19:05;96259.25;;;6.26;62.46
15229;BME280;7717;47.792;12.076;2023-12-29T04:21:32;96244.09;;;6.20;62.15
15229;BME280;7717;47.792;12.076;2023-12-29T04:23:57;96266.66;;;6.40;62.56
15229;BME280;7717;47.792;12.076;2023-12-29T04:26:23;96250.75;;;6.24;62.36
15229;BME280;7717;47.792;12.076;2023-12-29T04:28:48;96274.13;;;6.35;63.12
15229;BME280;7717;47.792;12.076;2023-12-29T04:31:15;96251.56;;;6.24;63.00
15229;BME280;7717;47.792;12.076;2023-12-29T04:33:43;96269.97;;;6.42;62.37
15229;BME280;7717;47.792;12.076;2023-12-29T04:36:09;96233.63;;;6.20;62.91
15229;BME280;7717;47.792;12.076;2023-12-29T04:38:40;96262.13;;;6.32;62.73
15229;BME280;7717;47.792;12.076;2023-12-29T04:41:05;96242.97;;;6.32;62.44
15229;BME280;7717;47.792;12.076;2023-12-29T04:43:30;96255.22;;;6.41;63.07
15229;BME280;7717;47.792;12.076;2023-12-29T04:45:56;96251.75;;;6.50;62.17
15229;BME280;7717;47.792;12.076;2023-12-29T04:48:22;96245.91;;;6.56;62.16
15229;BME280;7717;47.792;12.076;2023-12-29T04:50:47;96255.97;;;6.61;61.30
15229;BME280;7717;47.792;12.076;2023-12-29T04:53:13;96274.88;;;6.64;61.63
15229;BME280;7717;47.792;12.076;2023-12-29T04:55:38;96240.19;;;6.43;62.79
15229;BME280;7717;47.792;12.076;2023-12-29T04:58:04;96263.38;;;6.65;61.28
15229;BME280;7717;47.792;12.076;2023-12-29T05:00:29;96251.94;;;6.66;62.46
15229;BME280;7717;47.792;12.076;2023-12-29T05:02:54;96264.50;;;6.63;61.72
15229;BME280;7717;47.792;12.076;2023-12-29T05:05:20;96270.09;;;6.77;60.82
15229;BME280;7717;47.792;12.076;2023-12-29T05:07:45;96269.75;;;6.90;60.13
15229;BME280;7717;47.792;12.076;2023-12-29T05:10:10;96276.06;;;6.97;59.90
15229;BME280;7717;47.792;12.076;2023-12-29T05:12:36;96258.84;;;6.85;59.65
15229;BME280;7717;47.792;12.076;2023-12-29T05:15:01;96251.66;;;6.69;59.86
15229;BME280;7717;47.792;12.076;2023-12-29T05:17:26;96225.31;;;6.34;61.61
15229;BME280;7717;47.792;12.076;2023-12-29T05:19:52;96272.38;;;6.63;61.72
15229;BME280;7717;47.792;12.076;2023-12-29T05:22:18;96270.03;;;6.60;61.31
15229;BME280;7717;47.792;12.076;2023-12-29T05:24:44;96247.91;;;6.45;62.23
15229;BME280;7717;47.792;12.076;2023-12-29T05:27:10;96252.16;;;6.46;63.51
15229;BME280;7717;47.792;12.076;2023-12-29T05:29:36;96271.00;;;6.59;61.68
15229;BME280;7717;47.792;12.076;2023-12-29T05:32:01;96263.44;;;6.56;61.99
15229;BME280;7717;47.792;12.076;2023-12-29T05:34:27;96238.53;;;6.42;62.07
15229;BME280;7717;47.792;12.076;2023-12-29T05:36:53;96268.63;;;6.65;62.02
15229;BME280;7717;47.792;12.076;2023-12-29T05:39:22;96255.75;;;6.72;61.15
15229;BME280;7717;47.792;12.076;2023-12-29T05:41:50;96269.75;;;6.90;61.43
15229;BME280;7717;47.792;12.076;2023-12-29T05:44:26;96242.88;;;6.78;59.04
15229;BME280;7717;47.792;12.076;2023-12-29T05:46:51;96244.16;;;6.74;59.57
15229;BME280;7717;47.792;12.076;2023-12-29T05:49:26;96290.53;;;7.01;59.16
15229;BME280;7717;47.792;12.076;2023-12-29T05:51:51;96272.81;;;6.86;59.52
15229;BME280;7717;47.792;12.076;2023-12-29T05:54:26;96302.56;;;7.04;60.22
15229;BME280;7717;47.792;12.076;2023-12-29T05:56:51;96313.66;;;7.15;60.30
15229;BME280;7717;47.792;12.076;2023-12-29T05:59:17;96302.56;;;7.04;61.69
15229;BME280;7717;47.792;12.076;2023-12-29T06:01:49;96311.44;;;6.93;61.99
15229;BME280;7717;47.792;12.076;2023-12-29T06:04:15;96308.44;;;6.78;62.26
15229;BME280;7717;47.792;12.076;2023-12-29T06:06:43;96318.44;;;6.75;64.08
15229;BME280;7717;47.792;12.076;2023-12-29T06:09:09;96296.94;;;6.62;62.74
15229;BME280;7717;47.792;12.076;2023-12-29T06:11:36;96318.69;;;6.72;65.07
15229;BME280;7717;47.792;12.076;2023-12-29T06:14:02;96287.50;;;6.42;63.73
15229;BME280;7717;47.792;12.076;2023-12-29T06:16:27;96321.19;;;6.73;62.72
15229;BME280;7717;47.792;12.076;2023-12-29T06:18:55;96319.53;;;6.72;63.55
15229;BME280;7717;47.792;12.076;2023-12-29T06:21:29;96313.63;;;6.70;62.28
15229;BME280;7717;47.792;12.076;2023-12-29T06:23:55;96287.63;;;6.50;61.79
15229;BME280;7717;47.792;12.076;2023-12-29T06:26:26;96310.00;;;6.71;64.51
15229;BME280;7717;47.792;12.076;2023-12-29T06:28:52;96306.84;;;6.68;64.59
15229;BME280;7717;47.792;12.076;2023-12-29T06:31:17;96305.59;;;6.72;63.47
15229;BME280;7717;47.792;12.076;2023-12-29T06:33:43;96309.59;;;6.76;63.27
15229;BME280;7717;47.792;12.076;2023-12-29T06:36:10;96279.66;;;6.69;61.91
15229;BME280;7717;47.792;12.076;2023-12-29T06:38:36;96301.81;;;6.84;62.81
15229;BME280;7717;47.792;12.076;2023-12-29T06:41:04;96281.16;;;6.71;60.49
15229;BME280;7717;47.792;12.076;2023-12-29T06:43:30;96275.34;;;6.77;61.04
15229;BME280;7717;47.792;12.076;2023-12-29T06:45:56;96281.94;;;6.82;60.25
15229;BME280;7717;47.792;12.076;2023-12-29T06:48:21;96300.09;;;6.93;61.42
15229;BME280;7717;47.792;12.076;2023-12-29T06:50:46;96292.09;;;6.94;61.45
15229;BME280;7717;47.792;12.076;2023-12-29T06:53:12;96254.03;;;6.63;60.90
15229;BME280;7717;47.792;12.076;2023-12-29T06:55:37;96284.28;;;6.85;61.49
15229;BME280;7717;47.792;12.076;2023-12-29T06:58:04;96305.75;;;6.98;60.25
15229;BME280;7717;47.792;12.076;2023-12-29T07:00:32;96309.44;;;7.05;61.50
15229;BME280;7717;47.792;12.076;2023-12-29T07:02:59;96308.91;;;7.01;61.75
15229;BME280;7717;47.792;12.076;2023-12-29T07:05:30;96266.66;;;6.77;59.67
15229;BME280;7717;47.792;12.076;2023-12-29T07:07:57;96323.38;;;7.05;60.79
15229;BME280;7717;47.792;12.076;2023-12-29T07:10:23;96324.31;;;7.14;59.70
15229;BME280;7717;47.792;12.076;2023-12-29T07:12:48;96291.66;;;6.99;59.48
15229;BME280;7717;47.792;12.076;2023-12-29T07:15:13;96290.31;;;6.95;59.03
15229;BME280;7717;47.792;12.076;2023-12-29T07:17:39;96292.66;;;6.98;62.17
15229;BME280;7717;47.792;12.076;2023-12-29T07:20:05;96298.13;;;7.04;61.36
15229;BME280;7717;47.792;12.076;2023-12-29T07:22:34;96306.81;;;7.05;60.51
15229;BME280;7717;47.792;12.076;2023-12-29T07:25:00;96264.75;;;6.97;61.60
15229;BME280;7717;47.792;12.076;2023-12-29T07:27:25;96294.75;;;7.12;59.89
15229;BME280;7717;47.792;12.076;2023-12-29T07:29:51;96311.28;;;7.22;58.69
15229;BME280;7717;47.792;12.076;2023-12-29T07:32:16;96283.13;;;6.97;60.49
15229;BME280;7717;47.792;12.076;2023-12-29T07:34:42;96314.91;;;7.11;60.33
15229;BME280;7717;47.792;12.076;2023-12-29T07:37:09;96332.19;;;7.14;59.28
15229;BME280;7717;47.792;12.076;2023-12-29T07:39:36;96307.22;;;7.10;60.90
15229;BME280;7717;47.792;12.076;2023-12-29T07:42:02;96281.13;;;7.08;58.99
15229;BME280;7717;47.792;12.076;2023-12-29T07:44:37;96306.63;;;7.34;59.11
15229;BME280;7717;47.792;12.076;2023-12-29T07:47:03;96322.47;;;7.42;60.35
15229;BME280;7717;47.792;12.076;2023-12-29T07:49:28;96310.53;;;7.30;60.60
15229;BME280;7717;47.792;12.076;2023-12-29T07:51:53;96327.00;;;7.49;59.39
15229;BME280;7717;47.792;12.076;2023-12-29T07:54:19;96292.69;;;7.33;60.53
15229;BME280;7717;47.792;12.076;2023-12-29T07:56:44;96312.91;;;7.50;59.67
15229;BME280;7717;47.792;12.076;2023-12-29T07:59:09;96304.19;;;7.50;58.94
15229;BME280;7717;47.792;12.076;2023-12-29T08:01:39;96286.25;;;7.45;61.49
15229;BME280;7717;47.792;12.076;2023-12-29T08:04:04;96318.75;;;7.62;59.37
15229;BME280;7717;47.792;12.076;2023-12-29T08:06:30;96261.50;;;7.30;60.76
15229;BME280;7717;47.792;12.076;2023-12-29T08:08:55;96315.88;;;7.73;60.70
15229;BME280;7717;47.792;12.076;2023-12-29T08:11:21;96317.31;;;7.68;57.45
15229;BME280;7717;47.792;12.076;2023-12-29T08:13:48;96307.41;;;7.62;56.41
15229;BME280;7717;47.792;12.076;2023-12-29T08:16:14;96308.38;;;7.43;58.11
15229;BME280;7717;47.792;12.076;2023-12-29T08:18:39;96323.84;;;7.64;59.55
15229;BME280;7717;47.792;12.076;2023-12-29T08:21:05;96303.66;;;7.46;61.21
15229;BME280;7717;47.792;12.076;2023-12-29T08:23:30;96335.34;;;7.63;61.43
15229;BME280;7717;47.792;12.076;2023-12-29T08:25:57;96333.69;;;7.62;62.76
15229;BME280;7717;47.792;12.076;2023-12-29T08:28:23;96300.19;;;7.46;62.41
15229;BME280;7717;47.792;12.076;2023-12-29T08:30:49;96290.84;;;7.43;60.87
15229;BME280;7717;47.792;12.076;2023-12-29T08:33:14;96333.66;;;7.79;61.70
15229;BME280;7717;47.792;12.076;2023-12-29T08:35:40;96325.13;;;7.77;59.48
15229;BME280;7717;47.792;12.076;2023-12-29T08:38:06;96330.00;;;7.72;59.84
15229;BME280;7717;47.792;12.076;2023-12-29T08:40:31;96342.31;;;7.89;60.60
15229;BME280;7717;47.792;12.076;2023-12-29T08:42:57;96336.53;;;7.86;61.00
15229;BME280;7717;47.792;12.076;2023-12-29T08:45:22;96329.75;;;8.01;56.96
15229;BME280;7717;47.792;12.076;2023-12-29T08:47:48;96317.81;;;8.07;58.87
15229;BME280;7717;47.792;12.076;2023-12-29T08:50:13;96319.09;;;8.03;56.10
15229;BME280;7717;47.792;12.076;2023-12-29T08:52:42;96356.03;;;8.19;57.98
15229;BME280;7717;47.792;12.076;2023-12-29T08:55:08;96347.63;;;8.15;58.81
15229;BME280;7717;47.792;12.076;2023-12-29T08:57:36;96338.69;;;8.08;58.77
15229;BME280;7717;47.792;12.076;2023-12-29T09:00:02;96318.78;;;8.06;61.02
15229;BME280;7717;47.792;12.076;2023-12-29T09:02:27;96340.88;;;8.30;61.29
15229;BME280;7717;47.792;12.076;2023-12-29T09:04:53;96339.19;;;8.12;59.05
15229;BME280;7717;47.792;12.076;2023-12-29T09:07:18;96299.00;;;7.93;58.57
15229;BME280;7717;47.792;12.076;2023-12-29T09:09:44;96332.38;;;8.19;60.80
15229;BME280;7717;47.792;12.076;2023-12-29T09:12:09;96327.72;;;8.13;57.17
15229;BME280;7717;47.792;12.076;2023-12-29T09:14:34;96329.06;;;8.17;57.33
15229;BME280;7717;47.792;12.076;2023-12-29T09:17:00;96342.06;;;8.36;56.71
15229;BME280;7717;47.792;12.076;2023-12-29T09:19:26;96319.38;;;8.35;56.40
15229;BME280;7717;47.792;12.076;2023-12-29T09:21:52;96312.59;;;8.32;56.66
15229;BME280;7717;47.792;12.076;2023-12-29T09:24:17;96320.69;;;8.57;56.69
15229;BME280;7717;47.792;12.076;2023-12-29T09:26:46;96311.34;;;8.62;55.43
15229;BME280;7717;47.792;12.076;2023-12-29T09:29:11;96309.34;;;8.98;54.40
15229;BME280;7717;47.792;12.076;2023-12-29T09:31:37;96313.63;;;8.99;53.45
15229;BME280;7717;47.792;12.076;2023-12-29T09:34:02;96313.28;;;8.94;54.34
15229;BME280;7717;47.792;12.076;2023-12-29T09:36:28;96303.88;;;8.84;53.72
15229;BME280;7717;47.792;12.076;2023-12-29T09:38:53;96305.28;;;9.04;55.36
15229;BME280;7717;47.792;12.076;2023-12-29T09:41:22;96267.31;;;9.31;53.83
15229;BME280;7717;47.792;12.076;2023-12-29T09:43:51;96261.28;;;9.71;51.33
15229;BME280;7717;47.792;12.076;2023-12-29T09:46:17;96255.44;;;10.64;53.03
15229;BME280;7717;47.792;12.076;2023-12-29T09:48:51;96249.91;;;10.43;48.44
15229;BME280;7717;47.792;12.076;2023-12-29T09:51:17;96277.97;;;10.28;51.54
15229;BME280;7717;47.792;12.076;2023-12-29T09:53:48;96263.69;;;11.39;53.10
15229;BME280;7717;47.792;12.076;2023-12-29T09:56:15;96275.94;;;11.63;48.87
15229;BME280;7717;47.792;12.076;2023-12-29T09:58:42;96256.72;;;11.46;52.28
15229;BME280;7717;47.792;12.076;2023-12-29T10:01:09;96272.97;;;11.58;49.49
15229;BME280;7717;47.792;12.076;2023-12-29T10:03:35;96246.34;;;11.37;49.32
15229;BME280;7717;47.792;12.076;2023-12-29T10:06:03;96259.41;;;11.07;51.17
15229;BME280;7717;47.792;12.076;2023-12-29T10:08:33;96252.59;;;11.13;53.11
15229;BME280;7717;47.792;12.076;2023-12-29T10:11:00;96244.91;;;11.34;51.42
15229;BME280;7717;47.792;12.076;2023-12-29T10:13:27;96240.75;;;11.63;49.67
15229;BME280;7717;47.792;12.076;2023-12-29T10:16:00;96256.03;;;11.98;53.19
15229;BME280;7717;47.792;12.076;2023-12-29T10:18:32;96218.09;;;11.37;48.18
15229;BME280;7717;47.792;12.076;2023-12-29T10:24:06;96237.50;;;11.98;47.68
15229;BME280;7717;47.792;12.076;2023-12-29T10:26:34;96242.28;;;12.03;52.26
15229;BME280;7717;47.792;12.076;2023-12-29T10:28:59;96232.44;;;11.74;49.94
15229;BME280;7717;47.792;12.076;2023-12-29T10:31:25;96232.94;;;11.92;49.46
15229;BME280;7717;47.792;12.076;2023-12-29T10:34:16;96239.38;;;12.12;46.49
15229;BME280;7717;47.792;12.076;2023-12-29T10:36:49;96212.66;;;12.22;50.12
15229;BME280;7717;47.792;12.076;2023-12-29T10:39:21;96200.16;;;12.45;52.91
15229;BME280;7717;47.792;12.076;2023-12-29T10:41:49;96224.28;;;12.36;47.45
15229;BME280;7717;47.792;12.076;2023-12-29T10:44:18;96224.34;;;13.01;51.24
15229;BME280;7717;47.792;12.076;2023-12-29T10:46:43;96223.91;;;13.48;46.78
15229;BME280;7717;47.792;12.076;2023-12-29T10:49:10;96223.63;;;13.85;49.15
15229;BME280;7717;47.792;12.076;2023-12-29T10:51:35;96227.28;;;14.55;50.16
15229;BME280;7717;47.792;12.076;2023-12-29T10:54:02;96193.50;;;13.93;49.04
15229;BME280;7717;47.792;12.076;2023-12-29T10:56:29;96221.28;;;14.46;49.73
15229;BME280;7717;47.792;12.076;2023-12-29T10:59:05;96229.25;;;13.55;43.55
15229;BME280;7717;47.792;12.076;2023-12-29T11:01:34;96198.22;;;14.88;50.19
15229;BME280;7717;47.792;12.076;2023-12-29T11:04:02;96223.63;;;15.03;44.25
15229;BME280;7717;47.792;12.076;2023-12-29T11:06:29;96217.53;;;15.09;42.43
15229;BME280;7717;47.792;12.076;2023-12-29T11:08:55;96204.25;;;14.68;44.73
15229;BME280;7717;47.792;12.076;2023-12-29T11:11:23;96218.44;;;13.77;46.42
15229;BME280;7717;47.792;12.076;2023-12-29T11:13:49;96201.53;;;14.55;50.46
15229;BME280;7717;47.792;12.076;2023-12-29T11:16:15;96206.00;;;15.50;45.22
15229;BME280;7717;47.792;12.076;2023-12-29T11:18:43;96205.34;;;15.28;42.10
15229;BME280;7717;47.792;12.076;2023-12-29T11:21:10;96211.84;;;16.19;45.70
15229;BME280;7717;47.792;12.076;2023-12-29T11:23:36;96182.91;;;16.43;43.95
15229;BME280;7717;47.792;12.076;2023-12-29T11:26:03;96166.44;;;16.85;44.40
15229;BME280;7717;47.792;12.076;2023-12-29T11:28:28;96191.38;;;17.48;41.49
15229;BME280;7717;47.792;12.076;2023-12-29T11:30:54;96196.25;;;16.03;43.37
15229;BME280;7717;47.792;12.076;2023-12-29T11:33:31;96196.06;;;15.78;40.59
15229;BME280;7717;47.792;12.076;2023-12-29T11:36:03;96185.41;;;15.98;47.64
15229;BME280;7717;47.792;12.076;2023-12-29T11:44:08;96181.88;;;14.91;49.74
15229;BME280;7717;47.792;12.076;2023-12-29T11:46:41;96178.88;;;14.59;45.38
15229;BME280;7717;47.792;12.076;2023-12-29T11:49:08;96181.00;;;15.31;48.84
15229;BME280;7717;47.792;12.076;2023-12-29T11:51:42;96152.25;;;15.94;45.18
15229;BME280;7717;47.792;12.076;2023-12-29T11:54:26;96194.22;;;14.64;41.35
15229;BME280;7717;47.792;12.076;2023-12-29T11:56:57;96185.41;;;14.29;46.04
15229;BME280;7717;47.792;12.076;2023-12-29T11:59:24;96187.75;;;14.17;50.87
15229;BME280;7717;47.792;12.076;2023-12-29T12:01:56;96150.41;;;14.19;46.19
15229;BME280;7717;47.792;12.076;2023-12-29T12:12:44;96161.66;;;18.69;40.64
15229;BME280;7717;47.792;12.076;2023-12-29T12:17:59;96150.56;;;17.48;38.32
15229;BME280;7717;47.792;12.076;2023-12-29T12:20:25;96153.41;;;16.38;42.28
15229;BME280;7717;47.792;12.076;2023-12-29T12:23:11;96111.75;;;17.14;36.65
15229;BME280;7717;47.792;12.076;2023-12-29T12:25:42;96137.63;;;16.43;43.41
15229;BME280;7717;47.792;12.076;2023-12-29T12:28:09;96098.31;;;15.06;49.56
15229;BME280;7717;47.792;12.076;2023-12-29T12:30:35;96137.03;;;15.29;47.44
15229;BME280;7717;47.792;12.076;2023-12-29T12:33:02;96150.44;;;15.01;49.12
15229;BME280;7717;47.792;12.076;2023-12-29T12:35:28;96144.72;;;15.10;49.74
15229;BME280;7717;47.792;12.076;2023-12-29T12:38:11;96142.16;;;14.07;44.38
15229;BME280;7717;47.792;12.076;2023-12-29T12:40:36;96130.31;;;13.75;51.51
15229;BME280;7717;47.792;12.076;2023-12-29T12:43:03;96148.88;;;13.75;50.90
15229;BME280;7717;47.792;12.076;2023-12-29T12:45:29;96116.88;;;13.13;49.59
15229;BME280;7717;47.792;12.076;2023-12-29T12:48:13;96152.91;;;12.93;45.54
15229;BME280;7717;47.792;12.076;2023-12-29T12:50:43;96140.81;;;13.41;46.69
15229;BME280;7717;47.792;12.076;2023-12-29T12:53:12;96151.47;;;13.97;48.55
15229;BME280;7717;47.792;12.076;2023-12-29T12:55:40;96145.97;;;14.60;48.08
15229;BME280;7717;47.792;12.076;2023-12-29T12:58:06;96118.13;;;13.60;47.17
15229;BME280;7717;47.792;12.076;2023-12-29T13:00:31;96142.06;;;13.45;48.27
15229;BME280;7717;47.792;12.076;2023-12-29T13:02:56;96127.09;;;13.37;49.43
15229;BME280;7717;47.792;12.076;2023-12-29T13:05:22;96117.84;;;12.91;51.52
15229;BME280;7717;47.792;12.076;2023-12-29T13:07:48;96136.34;;;12.69;52.02
15229;BME280;7717;47.792;12.076;2023-12-29T13:10:14;96148.16;;;12.38;51.19
15229;BME280;7717;47.792;12.076;2023-12-29T13:12:39;96117.88;;;11.96;50.79
15229;BME280;7717;47.792;12.076;2023-12-29T13:15:06;96153.81;;;12.34;52.57
15229;BME280;7717;47.792;12.076;2023-12-29T13:17:33;96154.53;;;12.43;52.68
15229;BME280;7717;47.792;12.076;2023-12-29T13:19:58;96127.09;;;12.15;51.91
15229;BME280;7717;47.792;12.076;2023-12-29T13:22:24;96158.91;;;12.51;51.73
15229;BME280;7717;47.792;12.076;2023-12-29T13:24:52;96161.63;;;11.99;51.94
15229;BME280;7717;47.792;12.076;2023-12-29T13:27:17;96151.84;;;11.84;52.34
15229;BME280;7717;47.792;12.076;2023-12-29T13:29:44;96157.44;;;11.44;51.91